Time;durP1;ratioP1;P1;durP2;ratioP2;P2;SDS_P1;SDS_P2;PMS_P1;PMS_P2;Temp;Humidity;BMP_temperature;BMP_pressure;BME280_temperature;BME280_humidity;BME280_pressure;Samples;Min_cycle;Max_cycle;Signal;HPM_P1;HPM_P2
2022/08/04 00:00:55;;;;;;;2.90;1.45;;;27.20;99.90;;;;;;4132940;28;20046;-77
2022/08/04 00:03:20;;;;;;;3.42;1.48;;;27.20;99.90;;;;;;4132175;28;20048;-77
2022/08/04 00:05:57;;;;;;;3.15;1.33;;;27.20;99.90;;;;;;4131281;28;20074;-77
2022/08/04 00:08:25;;;;;;;2.22;1.30;;;27.30;99.90;;;;;;4132005;28;20493;-77
2022/08/04 00:10:30;;;;;;;3.38;1.38;;;27.30;99.90;;;;;;4127898;28;20061;-71
2022/08/04 00:12:37;;;;;;;2.30;1.27;;;27.30;99.90;;;;;;4127071;28;20138;-71
2022/08/04 00:14:48;;;;;;;3.70;1.30;;;27.20;99.90;;;;;;4157166;28;20056;-71
2022/08/04 00:16:53;;;;;;;4.07;1.58;;;27.30;99.90;;;;;;4134070;28;20625;-71
2022/08/04 00:19:00;;;;;;;2.35;1.40;;;27.30;99.90;;;;;;4141402;28;20066;-71
2022/08/04 00:21:12;;;;;;;3.50;1.90;;;27.30;99.90;;;;;;4133309;28;20497;-72
2022/08/04 00:23:17;;;;;;;4.40;2.30;;;27.30;99.90;;;;;;4134650;28;20050;-71
2022/08/04 00:25:22;;;;;;;5.63;2.45;;;27.40;99.90;;;;;;4137439;28;20049;-71
2022/08/04 00:27:31;;;;;;;3.65;1.90;;;27.50;99.90;;;;;;4128736;28;20057;-71
2022/08/04 00:29:38;;;;;;;3.50;1.77;;;27.40;99.90;;;;;;4140370;28;20056;-72
2022/08/04 00:31:43;;;;;;;3.60;2.30;;;27.40;99.90;;;;;;4132287;28;20057;-70
2022/08/04 00:34:01;;;;;;;3.38;1.80;;;27.50;99.90;;;;;;4135263;28;20038;-71
2022/08/04 00:36:05;;;;;;;4.35;1.70;;;27.50;99.90;;;;;;4139044;28;20050;-71
2022/08/04 00:38:10;;;;;;;3.83;1.85;;;27.50;99.90;;;;;;4134392;28;20038;-71
2022/08/04 00:40:39;;;;;;;4.55;1.63;;;27.60;99.90;;;;;;4134141;28;20060;-72
2022/08/04 00:42:53;;;;;;;5.28;1.52;;;27.60;99.90;;;;;;4136420;28;20038;-71
2022/08/04 00:45:26;;;;;;;5.03;1.52;;;27.60;99.90;;;;;;4133675;28;20138;-74
2022/08/04 00:48:14;;;;;;;2.70;1.20;;;27.70;99.90;;;;;;4110010;28;20055;-69
2022/08/04 00:50:38;;;;;;;3.45;1.10;;;27.80;99.90;;;;;;4111633;28;20047;-70
2022/08/04 00:53:16;;;;;;;5.57;1.50;;;27.80;99.90;;;;;;4111241;28;20049;-69
2022/08/04 00:55:52;;;;;;;3.40;1.30;;;27.80;99.90;;;;;;4110673;28;20058;-69
2022/08/04 00:58:23;;;;;;;3.22;1.17;;;27.90;99.90;;;;;;4094754;28;20055;-70
2022/08/04 01:00:32;;;;;;;4.75;1.10;;;27.90;99.90;;;;;;4110841;28;20065;-69
2022/08/04 01:03:00;;;;;;;3.72;1.30;;;27.90;99.90;;;;;;4110363;28;20063;-69
2022/08/04 01:05:27;;;;;;;4.00;1.40;;;27.90;99.90;;;;;;4095595;29;20050;-70
2022/08/04 01:08:05;;;;;;;2.35;1.30;;;27.90;99.90;;;;;;4094382;28;20071;-69
2022/08/04 01:10:29;;;;;;;4.95;1.30;;;27.90;99.90;;;;;;4095518;28;20055;-69
2022/08/04 01:13:06;;;;;;;1.85;0.90;;;28.00;99.90;;;;;;4094132;28;20054;-69
2022/08/04 01:15:40;;;;;;;4.53;1.30;;;28.00;99.90;;;;;;4094421;28;20133;-70
2022/08/04 01:18:07;;;;;;;1.90;0.93;;;28.00;99.90;;;;;;4081018;29;20048;-70
2022/08/04 01:20:16;;;;;;;3.85;1.10;;;28.00;99.90;;;;;;4113745;28;20066;-71
2022/08/04 01:23:00;;;;;;;1.30;0.85;;;28.10;99.90;;;;;;4112240;28;20058;-70
2022/08/04 01:25:36;;;;;;;2.70;0.90;;;28.10;99.90;;;;;;4126158;28;20039;-71
2022/08/04 01:28:14;;;;;;;3.35;1.10;;;28.10;99.90;;;;;;4128868;28;20042;-70
2022/08/04 01:30:21;;;;;;;3.50;0.95;;;28.10;99.90;;;;;;4129690;28;20051;-70
2022/08/04 01:32:39;;;;;;;2.63;0.90;;;28.10;99.90;;;;;;4128161;28;20125;-74
2022/08/04 01:35:01;;;;;;;4.70;1.10;;;28.20;99.90;;;;;;4131673;28;20050;-74
2022/08/04 01:37:26;;;;;;;2.15;1.17;;;28.20;99.90;;;;;;4130836;28;20061;-74
2022/08/04 01:39:41;;;;;;;5.05;1.48;;;28.20;99.90;;;;;;4132806;28;20123;-75
2022/08/04 01:41:48;;;;;;;2.85;1.00;;;28.30;99.90;;;;;;4161272;28;20054;-75
2022/08/04 01:44:02;;;;;;;2.17;0.80;;;28.30;99.90;;;;;;4133479;28;20046;-75
2022/08/04 01:46:09;;;;;;;2.50;0.82;;;28.30;99.90;;;;;;4129640;28;20050;-72
2022/08/04 01:48:15;;;;;;;4.95;1.10;;;28.40;99.90;;;;;;4162080;28;20041;-73
2022/08/04 01:50:26;;;;;;;2.28;0.90;;;28.40;99.90;;;;;;4135019;28;20049;-73
2022/08/04 01:52:31;;;;;;;1.60;0.65;;;28.50;99.90;;;;;;4146991;28;20437;-71
2022/08/04 01:54:38;;;;;;;1.90;0.90;;;28.40;99.90;;;;;;4147108;28;20060;-75
2022/08/04 01:56:46;;;;;;;3.30;1.00;;;28.50;99.90;;;;;;4130970;28;20133;-73
2022/08/04 01:58:51;;;;;;;1.27;0.60;;;28.50;99.90;;;;;;4130544;28;20047;-73
2022/08/04 02:01:07;;;;;;;2.72;0.85;;;28.60;99.90;;;;;;4131012;28;20096;-73
2022/08/04 02:03:16;;;;;;;2.15;0.90;;;28.60;99.90;;;;;;4130088;28;20050;-73
2022/08/04 02:05:22;;;;;;;3.15;0.80;;;28.70;99.90;;;;;;4131162;28;20872;-74
2022/08/04 02:08:13;;;;;;;1.15;0.65;;;28.70;99.90;;;;;;4130832;28;20061;-70
2022/08/04 02:10:42;;;;;;;3.17;0.77;;;28.90;99.90;;;;;;4130850;28;20093;-69
2022/08/04 02:13:08;;;;;;;3.47;0.88;;;29.00;99.90;;;;;;4129939;28;20093;-70
2022/08/04 02:15:42;;;;;;;1.83;0.77;;;29.10;99.90;;;;;;4130721;28;20054;-70
2022/08/04 02:17:56;;;;;;;;;;;29.20;99.90;;;;;;4131359;28;20100;-70
2022/08/04 02:20:22;;;;;;;2.42;0.82;;;29.30;99.90;;;;;;4131250;28;19930;-73
2022/08/04 02:22:29;;;;;;;1.15;0.70;;;29.30;99.90;;;;;;4130862;28;20068;-73
2022/08/04 02:24:49;;;;;;;30.00;8.48;;;29.30;99.90;;;;;;4131830;28;20375;-70
2022/08/04 02:26:56;;;;;;;15.18;4.93;;;29.30;99.90;;;;;;4128903;28;20069;-70
2022/08/04 02:29:16;;;;;;;4.15;1.77;;;29.40;99.90;;;;;;4131520;28;20049;-71
2022/08/04 02:31:46;;;;;;;2.95;1.10;;;29.30;99.90;;;;;;4129930;28;20061;-71
2022/08/04 02:34:06;;;;;;;4.60;1.00;;;29.40;99.90;;;;;;4131003;28;20546;-71
2022/08/04 02:36:31;;;;;;;6.22;1.15;;;29.40;99.90;;;;;;4128627;28;20432;-71
2022/08/04 02:39:01;;;;;;;9.25;2.50;;;29.50;99.90;;;;;;4160401;28;20467;-71
2022/08/04 02:41:06;;;;;;;9.30;3.15;;;29.50;99.90;;;;;;4130213;28;20425;-71
2022/08/04 02:43:13;;;;;;;9.55;2.85;;;29.60;99.90;;;;;;4132143;28;20050;-71
2022/08/04 02:45:42;;;;;;;7.47;2.53;;;29.60;99.90;;;;;;4111804;28;20136;-72
2022/08/04 02:47:47;;;;;;;4.03;1.80;;;29.70;99.90;;;;;;4111131;28;20082;-71
2022/08/04 02:50:13;;;;;;;2.97;1.35;;;29.80;99.90;;;;;;4100881;28;20102;-71
2022/08/04 02:52:31;;;;;;;3.70;1.40;;;29.80;99.90;;;;;;4129552;28;20174;-71
2022/08/04 02:54:39;;;;;;;1.40;0.88;;;29.90;99.90;;;;;;4129818;28;20042;-71
2022/08/04 02:56:45;;;;;;;2.22;1.10;;;29.70;99.90;;;;;;4127331;28;20181;-71
2022/08/04 02:59:01;;;;;;;3.13;0.95;;;29.40;99.90;;;;;;4119974;28;20097;-72
2022/08/04 03:01:06;;;;;;;1.25;0.80;;;29.40;99.90;;;;;;4114285;28;20383;-71
2022/08/04 03:03:25;;;;;;;1.70;0.90;;;29.50;99.90;;;;;;4114782;28;20449;-72
2022/08/04 03:05:54;;;;;;;2.30;0.75;;;29.70;99.90;;;;;;4113004;28;20042;-74
2022/08/04 03:08:36;;;;;;;2.27;0.90;;;29.70;99.90;;;;;;4082538;29;20049;-73
2022/08/04 03:11:14;;;;;;;1.33;0.52;;;29.70;99.90;;;;;;4097192;28;20051;-75
2022/08/04 03:13:39;;;;;;;2.55;0.90;;;29.60;99.90;;;;;;4100706;29;20075;-75
2022/08/04 03:16:11;;;;;;;2.88;0.80;;;29.70;99.90;;;;;;4084946;29;20066;-75
2022/08/04 03:18:41;;;;;;;1.65;0.80;;;29.80;99.90;;;;;;4109199;28;20050;-69
2022/08/04 03:21:13;;;;;;;4.18;0.85;;;30.00;99.90;;;;;;4105222;28;20591;-70
2022/08/04 03:23:42;;;;;;;1.65;0.75;;;30.10;99.90;;;;;;4106108;28;20078;-70
2022/08/04 03:26:07;;;;;;;2.35;0.80;;;30.10;99.90;;;;;;4112549;28;20039;-70
2022/08/04 03:28:43;;;;;;;2.85;0.70;;;29.90;99.90;;;;;;4114394;28;20038;-70
2022/08/04 03:31:05;;;;;;;1.42;0.65;;;29.80;99.90;;;;;;4110611;28;20054;-70
2022/08/04 03:33:34;;;;;;;2.20;0.98;;;30.00;99.90;;;;;;4130144;28;20092;-70
2022/08/04 03:36:11;;;;;;;3.78;0.77;;;30.00;99.90;;;;;;4129306;28;20393;-70
2022/08/04 03:38:50;;;;;;;1.85;0.52;;;30.00;99.90;;;;;;4112898;28;20113;-71
2022/08/04 03:41:25;;;;;;;3.50;0.80;;;30.10;99.90;;;;;;4128862;28;20138;-69
2022/08/04 03:44:23;;;;;;;1.27;0.63;;;30.30;99.90;;;;;;4111426;28;20050;-69
2022/08/04 03:46:53;;;;;;;2.75;1.20;;;30.40;99.90;;;;;;4110766;28;20138;-70
2022/08/04 03:49:31;;;;;;;1.40;0.95;;;30.30;99.90;;;;;;4112395;28;20047;-71
2022/08/04 03:55:05;;;;;;;2.85;1.00;;;30.20;99.90;;;;;;4064368;29;20044;-70
2022/08/04 03:57:42;;;;;;;2.58;0.68;;;30.50;99.90;;;;;;4092962;28;20495;-70
2022/08/04 04:00:24;;;;;;;2.92;0.40;;;30.50;99.90;;;;;;4064253;29;20124;-70
2022/08/04 04:03:01;;;;;;;1.55;0.50;;;30.50;99.90;;;;;;4107270;28;20046;-70
2022/08/04 04:05:35;;;;;;;1.35;0.75;;;30.60;99.90;;;;;;4095059;28;20566;-70
2022/08/04 04:08:31;;;;;;;3.95;1.05;;;30.60;99.90;;;;;;4094355;29;20437;-70
2022/08/04 04:11:11;;;;;;;3.58;0.70;;;30.60;99.90;;;;;;4094858;29;20082;-69
2022/08/04 04:13:33;;;;;;;2.42;0.77;;;30.70;99.90;;;;;;4094789;28;20061;-68
2022/08/04 04:16:17;;;;;;;1.23;0.65;;;30.90;99.90;;;;;;4077483;29;20139;-69
2022/08/04 04:18:51;;;;;;;3.05;0.80;;;31.00;99.90;;;;;;4079621;29;20517;-70
2022/08/04 04:21:09;;;;;;;2.53;0.70;;;31.10;99.90;;;;;;4096477;28;20058;-70
2022/08/04 04:23:45;;;;;;;3.90;0.52;;;31.20;99.90;;;;;;4140326;28;20137;-71
2022/08/04 04:26:14;;;;;;;4.20;0.70;;;31.30;99.90;;;;;;4110956;28;20129;-71
2022/08/04 04:28:44;;;;;;;1.63;0.70;;;31.20;99.90;;;;;;4112878;28;20054;-71
2022/08/04 04:31:21;;;;;;;1.80;0.50;;;31.20;99.90;;;;;;4111920;28;20066;-72
2022/08/04 04:33:50;;;;;;;1.50;0.70;;;31.30;99.90;;;;;;4127481;28;20057;-70
2022/08/04 04:36:18;;;;;;;1.30;0.55;;;31.10;99.90;;;;;;4135227;28;20050;-70
2022/08/04 04:38:33;;;;;;;2.03;0.60;;;31.00;99.90;;;;;;4136331;28;20464;-70
2022/08/04 04:41:09;;;;;;;2.38;0.70;;;31.20;99.90;;;;;;4135070;28;20046;-71
2022/08/04 04:43:53;;;;;;;2.05;0.60;;;31.20;99.90;;;;;;4131691;28;20545;-71
2022/08/04 04:46:17;;;;;;;;;;;31.40;99.90;;;;;;4133037;28;20092;-71
2022/08/04 04:48:45;;;;;;;2.10;0.60;;;31.40;99.90;;;;;;4136514;28;20534;-70
2022/08/04 04:51:05;;;;;;;2.00;0.50;;;31.50;99.90;;;;;;4134396;28;20058;-71
2022/08/04 04:53:29;;;;;;;2.90;0.57;;;31.60;99.90;;;;;;4141916;28;20108;-71
2022/08/04 04:55:39;;;;;;;2.72;0.60;;;31.60;99.90;;;;;;4126402;28;20085;-71
2022/08/04 04:57:52;;;;;;;1.23;0.52;;;31.40;99.90;;;;;;4155526;28;20048;-71
2022/08/04 05:00:01;;;;;;;5.10;1.00;;;31.40;99.90;;;;;;4128662;28;20050;-71
2022/08/04 05:02:31;;;;;;;0.73;0.50;;;31.40;99.90;;;;;;4125699;28;20101;-71
2022/08/04 05:05:08;;;;;;;2.38;0.70;;;31.60;99.90;;;;;;4128553;28;20051;-71
2022/08/04 05:07:57;;;;;;;1.08;0.60;;;31.70;99.90;;;;;;4125941;28;20101;-71
2022/08/04 05:10:47;;;;;;;2.00;0.63;;;31.60;99.90;;;;;;4132066;28;20134;-71
2022/08/04 05:13:25;;;;;;;4.28;0.60;;;31.60;99.90;;;;;;4130460;28;20145;-70
2022/08/04 05:15:52;;;;;;;1.27;0.70;;;31.70;99.90;;;;;;4128703;28;20054;-71
2022/08/04 05:17:58;;;;;;;3.30;0.60;;;31.60;99.60;;;;;;4130857;28;20062;-71
2022/08/04 05:20:33;;;;;;;3.72;0.40;;;31.70;99.90;;;;;;4132130;28;20065;-71
2022/08/04 05:22:59;;;;;;;1.42;0.47;;;31.80;99.90;;;;;;4129587;28;20057;-71
2022/08/04 05:25:20;;;;;;;2.83;0.57;;;31.70;99.60;;;;;;4131151;28;20038;-70
2022/08/04 05:27:34;;;;;;;3.40;0.63;;;31.70;99.20;;;;;;4129484;28;20441;-71
2022/08/04 05:29:49;;;;;;;3.60;0.73;;;31.40;99.00;;;;;;4130708;28;20046;-71
2022/08/04 05:31:57;;;;;;;3.78;2.20;;;31.40;99.50;;;;;;4129963;28;20045;-74
2022/08/04 05:34:13;;;;;;;4.03;2.92;;;31.30;99.40;;;;;;4131843;28;20101;-71
2022/08/04 05:36:21;;;;;;;5.32;1.70;;;31.50;99.90;;;;;;4126207;28;20064;-71
2022/08/04 05:38:42;;;;;;;2.35;1.08;;;31.60;99.90;;;;;;4131550;28;20048;-71
2022/08/04 05:40:48;;;;;;;0.80;0.70;;;31.70;99.90;;;;;;4114021;28;20101;-71
2022/08/04 05:42:55;;;;;;;1.98;0.63;;;31.80;99.90;;;;;;4129822;28;20043;-71
2022/08/04 05:45:02;;;;;;;1.65;0.75;;;31.90;99.90;;;;;;4131349;28;20112;-71
2022/08/04 05:47:06;;;;;;;1.45;0.50;;;31.90;99.90;;;;;;4128080;28;20042;-70
2022/08/04 05:49:15;;;;;;;1.20;0.68;;;32.00;99.90;;;;;;4131538;28;20054;-70
2022/08/04 05:51:24;;;;;;;2.83;0.80;;;32.10;99.90;;;;;;4141610;28;20463;-70
2022/08/04 05:53:29;;;;;;;5.10;1.00;;;32.10;99.90;;;;;;4135434;28;20042;-71
2022/08/04 05:55:36;;;;;;;2.35;0.80;;;32.20;99.90;;;;;;4129516;28;20046;-71
2022/08/04 05:58:01;;;;;;;1.83;0.73;;;32.20;99.90;;;;;;4130560;28;20042;-71
2022/08/04 06:00:06;;;;;;;4.57;1.27;;;32.20;99.80;;;;;;4130406;28;20050;-71
2022/08/04 06:02:32;;;;;;;1.75;0.80;;;32.30;99.40;;;;;;4129003;28;20628;-72
2022/08/04 06:04:39;;;;;;;2.80;0.73;;;32.20;99.00;;;;;;4129430;28;20053;-72
2022/08/04 06:06:44;;;;;;;3.03;0.60;;;32.20;99.50;;;;;;4127632;28;20591;-71
2022/08/04 06:08:51;;;;;;;2.30;0.70;;;32.30;99.60;;;;;;4161755;28;20088;-70
2022/08/04 06:11:01;;;;;;;2.13;0.60;;;32.20;98.50;;;;;;4130308;28;20046;-70
2022/08/04 06:13:11;;;;;;;2.05;0.55;;;32.10;98.60;;;;;;4128855;28;20509;-71
2022/08/04 06:15:39;;;;;;;2.55;0.80;;;32.10;98.50;;;;;;4129842;28;20070;-71
2022/08/04 06:17:50;;;;;;;1.10;0.63;;;32.20;98.80;;;;;;4130057;28;20048;-71
2022/08/04 06:20:16;;;;;;;2.83;0.80;;;32.30;98.80;;;;;;4156185;28;20053;-70
2022/08/04 06:22:27;;;;;;;3.10;0.70;;;32.30;98.80;;;;;;4129068;28;20045;-70
2022/08/04 06:24:35;;;;;;;1.80;0.60;;;32.40;99.40;;;;;;4129920;28;20121;-70
2022/08/04 06:26:39;;;;;;;2.83;0.82;;;32.40;99.50;;;;;;4157898;28;20057;-70
2022/08/04 06:28:49;;;;;;;1.25;0.60;;;32.50;99.40;;;;;;4131062;28;20057;-69
2022/08/04 06:31:01;;;;;;;2.47;0.50;;;32.60;99.00;;;;;;4111419;28;20486;-70
2022/08/04 06:33:36;;;;;;;0.73;0.40;;;32.70;99.00;;;;;;4127769;28;20077;-71
2022/08/04 06:36:00;;;;;;;2.33;0.60;;;32.80;98.80;;;;;;4132758;28;20109;-70
2022/08/04 06:38:08;;;;;;;2.03;0.50;;;32.90;98.60;;;;;;4130010;28;20046;-69
2022/08/04 06:40:19;;;;;;;3.72;0.80;;;33.00;98.50;;;;;;4131540;28;20061;-71
2022/08/04 06:42:37;;;;;;;2.20;0.57;;;33.00;98.20;;;;;;4128631;28;20054;-70
2022/08/04 06:44:45;;;;;;;0.90;0.60;;;32.90;98.20;;;;;;4086642;28;20229;-71
2022/08/04 06:46:50;;;;;;;2.22;0.50;;;32.90;98.20;;;;;;4110687;28;20133;-71
2022/08/04 06:48:57;;;;;;;3.30;1.25;;;33.00;98.10;;;;;;4145458;28;20386;-71
2022/08/04 06:51:06;;;;;;;0.75;0.40;;;33.10;97.70;;;;;;4131400;28;20049;-70
2022/08/04 06:53:31;;;;;;;1.02;0.40;;;33.20;97.40;;;;;;4145229;28;20056;-70
2022/08/04 06:55:38;;;;;;;1.13;0.40;;;33.20;97.10;;;;;;4145056;28;20079;-71
2022/08/04 06:57:45;;;;;;;1.13;0.50;;;33.20;96.20;;;;;;4144664;28;20042;-70
2022/08/04 07:00:09;;;;;;;1.55;0.50;;;33.10;96.70;;;;;;4146455;28;20041;-72
2022/08/04 07:02:16;;;;;;;1.95;0.50;;;33.00;96.20;;;;;;4145032;28;20080;-72
2022/08/04 07:04:22;;;;;;;1.65;0.60;;;33.00;96.30;;;;;;4127632;28;20125;-71
2022/08/04 07:06:26;;;;;;;1.80;0.68;;;33.20;96.80;;;;;;4144170;28;20412;-73
2022/08/04 07:08:33;;;;;;;3.63;0.40;;;33.20;96.70;;;;;;4133243;28;20046;-71
2022/08/04 07:10:40;;;;;;;2.92;0.45;;;33.30;95.90;;;;;;4130130;28;20080;-72
2022/08/04 07:12:45;;;;;;;1.58;0.63;;;33.40;96.40;;;;;;4127172;28;20518;-71
2022/08/04 07:14:52;;;;;;;1.27;0.55;;;33.50;94.80;;;;;;4129021;28;20073;-71
2022/08/04 07:16:58;;;;;;;1.05;0.40;;;33.50;94.30;;;;;;4125658;28;20211;-72
2022/08/04 07:19:02;;;;;;;1.15;0.47;;;33.30;94.20;;;;;;4117162;28;20055;-70
2022/08/04 07:21:21;;;;;;;1.42;0.50;;;33.50;94.60;;;;;;4122907;28;20525;-70
2022/08/04 07:23:27;;;;;;;1.05;0.43;;;33.70;94.80;;;;;;4141555;28;20057;-71
2022/08/04 07:25:33;;;;;;;2.17;0.68;;;33.70;95.60;;;;;;4134973;28;20054;-70
2022/08/04 07:28:00;;;;;;;1.88;0.75;;;33.60;96.70;;;;;;4114415;28;20105;-70
2022/08/04 07:30:07;;;;;;;0.95;0.55;;;33.60;97.80;;;;;;4135549;28;20046;-70
2022/08/04 07:32:12;;;;;;;1.08;0.60;;;33.90;97.60;;;;;;4143280;28;20535;-70
2022/08/04 07:34:17;;;;;;;3.72;0.60;;;33.90;97.00;;;;;;4141510;28;20046;-69
2022/08/04 07:36:25;;;;;;;2.83;0.50;;;34.00;97.10;;;;;;4124543;28;20125;-70
2022/08/04 07:38:34;;;;;;;2.35;0.57;;;34.10;95.90;;;;;;4138902;28;20088;-70
2022/08/04 07:40:52;;;;;;;0.70;0.40;;;34.30;95.80;;;;;;4173069;28;20049;-70
2022/08/04 07:42:58;;;;;;;1.67;0.40;;;34.30;94.70;;;;;;4144107;28;20124;-70
2022/08/04 07:45:03;;;;;;;1.40;0.50;;;34.40;94.80;;;;;;4138712;28;20042;-71
2022/08/04 07:47:14;;;;;;;1.73;0.60;;;34.50;94.70;;;;;;4126772;28;20047;-68
2022/08/04 07:49:27;;;;;;;1.00;0.50;;;34.50;94.70;;;;;;4113389;28;20039;-70
2022/08/04 07:51:52;;;;;;;2.60;0.60;;;34.30;95.60;;;;;;4110620;28;20744;-71
2022/08/04 07:53:59;;;;;;;3.72;0.50;;;34.00;96.30;;;;;;4112720;28;20081;-69
2022/08/04 07:56:06;;;;;;;1.35;0.57;;;34.20;96.60;;;;;;4128297;28;20108;-71
2022/08/04 07:58:11;;;;;;;2.50;0.80;;;34.20;96.30;;;;;;4127579;28;20058;-70
2022/08/04 08:00:18;;;;;;;1.02;0.70;;;34.10;96.60;;;;;;4129535;28;20038;-70
2022/08/04 08:02:24;;;;;;;2.42;0.65;;;34.00;96.30;;;;;;4124299;28;20050;-70
2022/08/04 08:04:29;;;;;;;1.75;0.50;;;34.10;95.30;;;;;;4109195;28;20105;-70
2022/08/04 08:06:36;;;;;;;1.75;0.60;;;34.30;94.90;;;;;;4117079;28;20161;-70
2022/08/04 08:08:45;;;;;;;1.40;0.40;;;34.30;94.30;;;;;;4125201;28;20045;-70
2022/08/04 08:10:50;;;;;;;1.95;0.40;;;34.40;94.80;;;;;;4126078;28;20051;-69
2022/08/04 08:12:57;;;;;;;1.95;0.50;;;34.50;95.10;;;;;;4124364;28;20555;-70
2022/08/04 08:15:11;;;;;;;1.17;0.60;;;34.50;95.50;;;;;;4126109;28;20050;-70
2022/08/04 08:17:18;;;;;;;3.03;0.70;;;34.60;95.50;;;;;;4123001;28;20050;-70
2022/08/04 08:19:25;;;;;;;2.35;0.75;;;34.50;94.80;;;;;;4125912;28;20117;-71
2022/08/04 08:21:31;;;;;;;2.65;0.50;;;34.30;94.70;;;;;;4125554;28;20058;-70
2022/08/04 08:23:36;;;;;;;0.82;0.50;;;34.20;94.20;;;;;;4124970;28;20133;-71
2022/08/04 08:25:43;;;;;;;1.60;0.60;;;34.00;93.90;;;;;;4124322;28;20464;-70
2022/08/04 08:27:49;;;;;;;3.30;0.70;;;34.00;93.90;;;;;;4122322;28;20112;-70
2022/08/04 08:29:58;;;;;;;0.90;0.52;;;34.10;94.20;;;;;;4125669;28;20045;-73
2022/08/04 08:32:05;;;;;;;1.80;0.40;;;34.30;94.80;;;;;;4123956;28;20534;-71
2022/08/04 08:34:12;;;;;;;1.85;0.40;;;34.30;94.70;;;;;;4125973;28;20074;-71
2022/08/04 08:37:09;;;;;;;1.95;0.52;;;34.20;95.10;;;;;;4121699;28;20625;-71
2022/08/04 08:39:20;;;;;;;1.20;0.30;;;34.20;94.30;;;;;;4124479;28;20069;-71
2022/08/04 08:41:51;;;;;;;1.48;0.50;;;34.30;94.10;;;;;;4125224;28;20054;-70
2022/08/04 08:44:21;;;;;;;1.63;0.40;;;34.20;93.50;;;;;;4125082;28;20046;-71
2022/08/04 08:47:01;;;;;;;1.30;0.40;;;34.20;93.80;;;;;;4087481;29;20058;-70
2022/08/04 08:49:34;;;;;;;0.52;0.45;;;34.20;94.10;;;;;;4132826;28;20459;-70
2022/08/04 08:52:32;;;;;;;1.40;0.47;;;34.20;94.20;;;;;;4101525;28;20094;-71
2022/08/04 08:55:26;;;;;;;2.40;0.55;;;34.40;94.30;;;;;;4067121;29;20074;-69
2022/08/04 08:57:41;;;;;;;1.65;0.35;;;34.30;93.10;;;;;;4106239;28;20058;-70
2022/08/04 09:00:26;;;;;;;1.27;0.50;;;34.20;93.60;;;;;;4077432;29;20051;-69
2022/08/04 09:02:52;;;;;;;1.77;0.95;;;34.20;93.90;;;;;;4076249;29;20051;-69
2022/08/04 09:05:31;;;;;;;1.85;0.47;;;34.30;93.90;;;;;;4095123;28;20474;-70
2022/08/04 09:08:04;;;;;;;0.40;0.40;;;34.20;93.50;;;;;;4090764;28;20690;-69
2022/08/04 09:10:27;;;;;;;0.90;0.40;;;34.00;93.90;;;;;;4093189;29;20858;-71
2022/08/04 09:12:57;;;;;;;1.83;0.98;;;34.00;94.20;;;;;;4092659;28;20055;-69
2022/08/04 09:15:18;;;;;;;1.05;0.47;;;33.90;94.20;;;;;;4093904;28;20075;-69
2022/08/04 09:17:36;;;;;;;0.60;0.40;;;33.80;94.60;;;;;;4091166;29;20239;-70
2022/08/04 09:20:05;;;;;;;1.77;0.40;;;33.80;95.20;;;;;;4070673;29;20063;-70
2022/08/04 09:22:31;;;;;;;1.73;0.50;;;33.70;95.60;;;;;;4101560;28;20054;-69
2022/08/04 09:25:06;;;;;;;0.80;0.52;;;33.60;95.70;;;;;;4061839;29;20056;-69
2022/08/04 09:27:27;;;;;;;9.93;2.17;;;33.50;96.10;;;;;;4105938;28;20051;-68
2022/08/04 09:29:53;;;;;;;3.97;0.88;;;33.40;96.20;;;;;;4114894;28;20483;-71
2022/08/04 09:32:23;;;;;;;3.50;0.82;;;33.30;96.30;;;;;;4126437;28;20085;-71
2022/08/04 09:35:07;;;;;;;3.17;0.85;;;33.30;96.40;;;;;;4125910;28;20046;-71
2022/08/04 09:37:41;;;;;;;2.25;0.63;;;33.40;96.60;;;;;;4116942;28;20046;-72
2022/08/04 09:40:04;;;;;;;1.38;0.60;;;33.30;96.50;;;;;;4119668;28;20625;-72
2022/08/04 09:42:41;;;;;;;2.15;0.45;;;33.40;96.40;;;;;;4121565;28;20466;-72
2022/08/04 09:45:03;;;;;;;1.20;0.50;;;33.40;96.90;;;;;;4121595;28;20088;-72
2022/08/04 09:47:24;;;;;;;2.58;0.65;;;33.30;97.30;;;;;;4119721;28;20042;-72
2022/08/04 09:50:14;;;;;;;0.80;0.30;;;33.30;97.40;;;;;;4122356;28;20057;-71
2022/08/04 09:52:47;;;;;;;1.77;0.40;;;33.20;97.10;;;;;;4126980;28;20047;-72
2022/08/04 09:55:02;;;;;;;3.97;0.75;;;33.10;96.90;;;;;;4130475;28;20078;-72
2022/08/04 09:57:25;;;;;;;2.25;0.60;;;33.30;97.00;;;;;;4134222;28;20058;-71
2022/08/04 10:00:00;;;;;;;2.78;0.50;;;33.30;96.80;;;;;;4138046;28;20461;-70
2022/08/04 10:02:16;;;;;;;1.92;0.55;;;33.40;96.70;;;;;;4130891;28;20093;-72
2022/08/04 10:04:21;;;;;;;3.10;0.60;;;33.50;96.40;;;;;;4132612;28;20383;-72
2022/08/04 10:07:01;;;;;;;3.75;0.70;;;33.50;96.40;;;;;;4110590;28;20146;-71
2022/08/04 10:09:44;;;;;;;0.95;0.47;;;33.40;96.40;;;;;;4132022;28;20046;-72
2022/08/04 10:12:16;;;;;;;1.85;0.40;;;33.50;96.50;;;;;;4135656;28;20054;-73
2022/08/04 10:14:51;;;;;;;2.60;0.60;;;33.50;96.50;;;;;;4132980;28;20105;-73
2022/08/04 10:17:14;;;;;;;1.08;0.52;;;33.50;96.40;;;;;;4113679;28;20137;-71
2022/08/04 10:19:30;;;;;;;0.77;0.43;;;33.50;96.60;;;;;;4134470;28;20065;-71
2022/08/04 10:21:52;;;;;;;1.52;0.50;;;33.50;96.50;;;;;;4131143;28;20413;-72
2022/08/04 10:24:58;;;;;;;2.30;1.10;;;33.40;96.60;;;;;;4099938;28;20142;-72
2022/08/04 10:27:16;;;;;;;1.02;0.73;;;33.30;96.30;;;;;;4094903;28;20606;-72
2022/08/04 10:29:37;;;;;;;1.42;0.50;;;33.20;96.30;;;;;;4092673;28;20071;-73
2022/08/04 10:31:58;;;;;;;2.67;0.80;;;33.20;96.40;;;;;;4091191;28;20123;-73
2022/08/04 10:34:12;;;;;;;1.85;1.13;;;33.30;96.40;;;;;;4101118;28;20217;-72
2022/08/04 10:36:20;;;;;;;2.22;0.90;;;33.30;96.10;;;;;;4112186;28;20101;-71
2022/08/04 10:38:57;;;;;;;1.85;0.80;;;33.20;96.30;;;;;;4099072;28;20505;-71
2022/08/04 10:41:06;;;;;;;2.10;1.50;;;33.10;96.50;;;;;;4099712;28;20090;-72
2022/08/04 10:43:23;;;;;;;2.47;1.52;;;33.00;96.30;;;;;;4094948;28;20051;-72
2022/08/04 10:45:52;;;;;;;3.03;1.60;;;33.10;96.20;;;;;;4115101;28;20042;-72
2022/08/04 10:48:32;;;;;;;4.20;1.70;;;33.00;96.40;;;;;;4113207;28;20058;-71
2022/08/04 10:50:39;;;;;;;3.70;1.90;;;33.00;96.50;;;;;;4103527;28;20047;-71
2022/08/04 10:53:12;;;;;;;2.53;1.85;;;32.90;96.40;;;;;;4101915;28;20490;-70
2022/08/04 10:55:22;;;;;;;2.45;1.20;;;32.90;96.60;;;;;;4103006;28;20046;-68
2022/08/04 10:57:51;;;;;;;2.72;1.10;;;32.80;96.50;;;;;;4100423;28;20057;-71
2022/08/04 11:00:07;;;;;;;5.47;1.10;;;32.70;96.70;;;;;;4105001;28;20073;-70
2022/08/04 11:02:44;;;;;;;2.22;1.27;;;32.70;97.10;;;;;;4145463;28;20139;-70
2022/08/04 11:05:00;;;;;;;2.78;1.30;;;32.60;96.90;;;;;;4132058;28;20136;-74
2022/08/04 11:07:05;;;;;;;2.33;1.05;;;32.60;97.20;;;;;;4134172;28;20050;-71
2022/08/04 11:09:09;;;;;;;1.92;0.93;;;32.60;97.30;;;;;;4129232;28;20053;-71
2022/08/04 11:11:38;;;;;;;3.47;0.90;;;32.60;97.40;;;;;;4131254;28;20125;-70
2022/08/04 11:14:08;;;;;;;6.88;1.13;;;32.50;97.60;;;;;;4129619;28;20054;-69
2022/08/04 11:16:30;;;;;;;1.80;1.02;;;32.40;97.90;;;;;;4129599;28;20046;-70
2022/08/04 11:19:09;;;;;;;3.47;0.80;;;32.30;97.10;;;;;;4113375;28;20054;-69
2022/08/04 11:21:21;;;;;;;11.30;3.58;;;32.30;97.30;;;;;;4130891;28;20134;-69
2022/08/04 11:23:32;;;;;;;8.20;2.53;;;32.30;97.50;;;;;;4132661;28;20057;-69
2022/08/04 11:26:00;;;;;;;6.85;3.22;;;32.30;97.80;;;;;;4126833;28;20068;-70
2022/08/04 11:28:28;;;;;;;6.47;2.47;;;32.20;97.80;;;;;;4131485;28;20038;-68
2022/08/04 11:30:57;;;;;;;5.20;2.10;;;32.10;97.90;;;;;;4132257;28;20046;-69
2022/08/04 11:33:41;;;;;;;30.48;12.30;;;32.10;98.10;;;;;;4132315;28;20089;-70
2022/08/04 11:36:08;;;;;;;17.65;6.75;;;32.10;98.10;;;;;;4153265;28;20049;-71
2022/08/04 11:38:51;;;;;;;7.55;2.63;;;32.20;98.10;;;;;;4128205;28;20112;-68
2022/08/04 11:41:03;;;;;;;3.17;1.30;;;32.10;98.30;;;;;;4122110;28;20096;-69
2022/08/04 11:43:19;;;;;;;3.80;1.10;;;32.10;98.00;;;;;;4153707;28;20095;-70
2022/08/04 11:45:51;;;;;;;3.35;0.98;;;32.00;97.40;;;;;;4109107;28;20864;-70
2022/08/04 11:47:59;;;;;;;3.63;1.25;;;32.00;98.00;;;;;;4099165;28;20082;-70
2022/08/04 11:50:37;;;;;;;3.05;0.95;;;32.00;98.10;;;;;;4101283;28;20051;-70
2022/08/04 11:52:42;;;;;;;1.80;1.00;;;32.00;98.10;;;;;;4098463;28;20485;-68
2022/08/04 11:54:51;;;;;;;2.72;1.13;;;31.90;98.30;;;;;;4097712;28;20048;-69
2022/08/04 11:56:57;;;;;;;5.28;1.00;;;31.90;98.20;;;;;;4097472;28;20047;-70
2022/08/04 11:59:04;;;;;;;5.90;0.90;;;31.90;98.30;;;;;;4081975;28;20851;-69
2022/08/04 12:01:43;;;;;;;3.90;1.00;;;31.90;98.50;;;;;;4097281;28;20878;-72
2022/08/04 12:04:20;;;;;;;3.53;1.40;;;31.90;98.30;;;;;;4092471;28;20055;-74
2022/08/04 12:06:42;;;;;;;8.38;1.40;;;31.80;98.60;;;;;;4086340;28;20525;-71
2022/08/04 12:09:27;;;;;;;4.00;1.55;;;31.80;98.60;;;;;;4090234;28;20949;-71
2022/08/04 12:12:00;;;;;;;2.50;1.30;;;31.90;98.90;;;;;;4088499;28;20107;-71
2022/08/04 12:14:38;;;;;;;2.10;1.08;;;31.90;98.80;;;;;;4105560;28;20054;-71
2022/08/04 12:16:51;;;;;;;3.00;1.35;;;31.80;98.90;;;;;;4100550;28;20050;-70